2008 HONDO (2008033S11083)


On this page: IBTrACS data - Map and Plots - Positions - Intensities - Original source data

Summary

Start Feb 2
End Feb 29
Basin SI
LMI 130 kt
Sources jtwc_sh
reunion
In WMO? Yes
Previous storm 2008 GENE (SP)
Previous in basin 2008 GULA (SI)
Concurrent storms 2008 GULA (SI)
2008 GENE (SP)
2008 HONDO (SI)
2008 MISSING (SI)
2008 IVAN (SI)
2008 NICHOLAS (SI)
2008 OPHELIA (SI)
2008 MISSING (SP)
Next in basin 2008 MISSING (SI)
Next storm 2008 MISSING (SI)

top of page IBTrACS Data: File Access

top of page HURSAT Data: File Access

Image of storm

top of page Plots:

Map of storm track will not appear if FTP is down
Time series of cyclone Maximum Sustained Wind will not appear if FTP is down
Time series of cyclone Minimum Central Pressure will not appear if FTP is down

top of page Track Data:Position

jtwc_sh reunion
Date Lat Lon Lat Lon
2008-02-02 06:00:00 -10.6 83.3
2008-02-02 12:00:00 -10.9 83.2 -11.1 83.5
2008-02-02 18:00:00 -11.2 83.0 -11.2 83.2
2008-02-03 00:00:00 -11.5 82.6 -11.4 82.7
2008-02-03 06:00:00 -11.8 82.1 -11.8 82.0
2008-02-03 12:00:00 -12.1 81.4 -12.0 81.4
2008-02-03 18:00:00 -12.3 80.9 -12.1 80.8
2008-02-04 00:00:00 -12.4 80.4 -12.2 80.3
2008-02-04 06:00:00 -12.6 80.2 -12.3 80.3
2008-02-04 12:00:00 -12.9 80.1 -12.5 80.5
2008-02-04 18:00:00 -13.2 80.2 -13.1 80.4
2008-02-05 00:00:00 -13.4 80.4 -13.4 80.5
2008-02-05 06:00:00 -13.5 80.6 -13.5 80.6
2008-02-05 12:00:00 -13.6 80.8 -13.6 80.9
2008-02-05 18:00:00 -13.8 81.0 -13.8 81.0
2008-02-06 00:00:00 -13.9 81.1 -14.0 81.2
2008-02-06 06:00:00 -14.0 81.3 -14.1 81.3
2008-02-06 12:00:00 -14.2 81.7 -14.2 81.7
2008-02-06 18:00:00 -14.4 82.1 -14.3 82.0
2008-02-07 00:00:00 -14.5 82.3 -14.5 82.3
2008-02-07 06:00:00 -14.7 82.5 -14.7 82.5
2008-02-07 12:00:00 -14.9 82.7 -14.9 82.7
2008-02-07 18:00:00 -15.0 82.9 -15.0 82.9
2008-02-08 00:00:00 -15.1 83.3 -15.1 83.1
2008-02-08 06:00:00 -15.1 83.6 -15.0 83.6
jtwc_sh reunion
2008-02-08 12:00:00 -15.3 84.1 -15.4 84.1
2008-02-08 18:00:00 -15.6 84.4 -15.7 84.4
2008-02-09 00:00:00 -16.0 84.8 -16.1 84.9
2008-02-09 06:00:00 -16.5 85.3 -16.7 85.4
2008-02-09 12:00:00 -17.4 85.9 -17.4 85.8
2008-02-09 18:00:00 -18.3 86.3 -18.3 86.1
2008-02-10 00:00:00 -19.3 86.4 -19.4 86.4
2008-02-10 06:00:00 -20.3 86.6 -20.0 86.6
2008-02-10 12:00:00 -21.0 86.6 -20.9 86.7
2008-02-10 18:00:00 -21.7 86.4 -21.5 86.5
2008-02-11 00:00:00 -22.3 86.2 -22.4 86.3
2008-02-11 06:00:00 -23.0 86.0 -23.1 86.0
2008-02-11 12:00:00 -23.8 85.7 -23.7 85.8
2008-02-11 18:00:00 -24.3 85.5 -24.1 85.6
2008-02-12 00:00:00 -24.6 85.2 -24.6 85.4
2008-02-12 06:00:00 -24.7 84.9 -24.7 85.2
2008-02-12 12:00:00 -24.5 84.6 -24.3 84.8
2008-02-12 18:00:00 -23.9 84.1 -23.5 84.0
2008-02-13 00:00:00 -23.1 83.6 -23.0 83.5
2008-02-13 06:00:00 -22.5 83.3 -22.4 83.1
2008-02-13 12:00:00 -22.0 83.0 -22.0 83.0
2008-02-13 18:00:00 -21.5 82.4 -21.3 82.6
2008-02-14 00:00:00 -21.4 82.1 -21.1 82.3
2008-02-14 06:00:00 -21.4 81.9 -21.2 82.1
jtwc_sh reunion
2008-02-14 12:00:00 -21.8 81.3 -21.8 81.4
2008-02-14 18:00:00 -22.0 80.4 -21.7 80.3
2008-02-15 00:00:00 -21.8 79.4 -21.6 79.3
2008-02-15 06:00:00 -21.4 78.6 -21.4 78.5
2008-02-15 12:00:00 -20.9 78.0 -20.8 78.1
2008-02-15 18:00:00 -20.4 77.6 -20.4 77.7
2008-02-16 00:00:00 -19.9 77.3 -19.9 77.2
2008-02-16 06:00:00 -19.4 76.8 -19.5 76.7
2008-02-16 12:00:00 -19.1 75.6 -19.3 75.8
2008-02-16 18:00:00 -18.6 74.3 -18.8 73.9
2008-02-17 00:00:00 -18.2 73.1 -18.5 73.0
2008-02-17 06:00:00 -17.9 72.4 -18.2 72.3
2008-02-17 12:00:00 -17.8 71.7 -17.8 71.5
2008-02-17 18:00:00 -17.8 71.0 -17.7 71.0
2008-02-18 00:00:00 -17.8 70.3 -17.8 70.4
2008-02-18 06:00:00 -18.1 69.4 -17.9 69.9
2008-02-18 12:00:00 -18.3 68.6 -18.1 69.2
2008-02-18 18:00:00 -18.5 67.7 -18.3 68.1
2008-02-19 00:00:00 -18.7 66.8 -18.4 67.5
2008-02-19 06:00:00 -19.0 65.8 -18.6 66.4
2008-02-19 12:00:00 -19.4 64.6 -19.0 64.7
2008-02-19 18:00:00 -19.2 63.3 -18.9 63.7
2008-02-20 00:00:00 -18.7 62.3 -18.6 62.6
2008-02-20 06:00:00 -18.3 61.8 -18.3 61.8
jtwc_sh reunion
2008-02-20 12:00:00 -17.9 61.2 -18.1 61.0
2008-02-20 18:00:00 -17.9 60.9 -18.0 60.5
2008-02-21 00:00:00 -18.0 60.6 -17.9 60.2
2008-02-21 06:00:00 -18.0 60.3 -17.9 60.1
2008-02-21 12:00:00 -18.1 60.1 -18.1 60.0
2008-02-21 18:00:00 -18.3 59.9 -18.3 59.8
2008-02-22 00:00:00 -18.5 59.8 -18.5 59.7
2008-02-22 06:00:00 -18.7 59.6 -18.7 59.6
2008-02-22 12:00:00 -18.9 59.3 -18.9 59.0
2008-02-22 18:00:00 -19.2 58.8 -19.0 58.8
2008-02-23 00:00:00 -19.8 58.0 -19.7 57.8
2008-02-23 06:00:00 -20.2 56.8 -20.1 56.7
2008-02-23 12:00:00 -20.7 55.9 -20.7 56.0
2008-02-23 18:00:00 -21.6 55.1 -21.9 55.3
2008-02-24 00:00:00 -22.6 54.4 -22.7 54.4
2008-02-24 06:00:00 -23.7 53.5 -23.5 53.4
2008-02-24 12:00:00 -24.9 52.6 -24.7 52.3
2008-02-24 18:00:00 -26.3 51.9 -26.2 51.7
2008-02-25 00:00:00 -27.6 51.7 -27.7 51.4
2008-02-25 06:00:00 -28.9 51.8 -29.1 51.5
2008-02-25 12:00:00 -29.9 52.6 -30.0 52.4
2008-02-25 18:00:00 -30.4 53.2
2008-02-26 00:00:00 -30.8 54.3
2008-02-26 06:00:00 -31.1 55.5
jtwc_sh reunion
2008-02-26 12:00:00 -30.8 56.1
2008-02-26 18:00:00 -30.5 56.7
2008-02-27 00:00:00 -30.0 57.3
2008-02-27 06:00:00 -29.7 57.7
2008-02-27 12:00:00 -29.9 58.2
2008-02-27 18:00:00 -29.3 58.0
2008-02-28 00:00:00 -29.2 57.3
2008-02-28 06:00:00 -29.2 56.4
2008-02-28 12:00:00 -29.6 55.5
2008-02-28 18:00:00 -30.5 54.9
2008-02-29 00:00:00 -31.5 54.3
2008-02-29 06:00:00 -32.5 54.2

top of pageTrack Data:Intensity

jtwc_sh reunion
Date Wind Pres Wind Pres
2008-02-02 06:00:00 15. 1010.
2008-02-02 12:00:00 15. 1010. 20. 1003.
2008-02-02 18:00:00 15. 1010. 20. 1003.
2008-02-03 00:00:00 15. 1010. 20. 1003.
2008-02-03 06:00:00 20. 1007. 25. 1002.
2008-02-03 12:00:00 25. 1004. 25. 1002.
2008-02-03 18:00:00 25. 1003. 25. 1001.
2008-02-04 00:00:00 25. 1004. 27. 1000.
2008-02-04 06:00:00 30. 1000. 27. 1000.
2008-02-04 12:00:00 30. 1000. 30. 998.
2008-02-04 18:00:00 35. 996. 37. 994.
2008-02-05 00:00:00 45. 989. 43. 990.
2008-02-05 06:00:00 55. 982. 55. 982.
2008-02-05 12:00:00 65. 974. 65. 975.
2008-02-05 18:00:00 75. 967. 65. 975.
2008-02-06 00:00:00 80. 963. 65. 975.
2008-02-06 06:00:00 85. 959. 70. 968.
2008-02-06 12:00:00 105. 944. 75. 960.
2008-02-06 18:00:00 120. 933. 95. 940.
2008-02-07 00:00:00 120. 933. 95. 938.
2008-02-07 06:00:00 125. 929. 100. 930.
2008-02-07 12:00:00 130. 926. 115. 915.
2008-02-07 18:00:00 130. 926. 115. 915.
2008-02-08 00:00:00 125. 929. 115. 915.
2008-02-08 06:00:00 120. 933. 110. 920.
jtwc_sh reunion
2008-02-08 12:00:00 115. 937. 100. 930.
2008-02-08 18:00:00 115. 937. 110. 920.
2008-02-09 00:00:00 120. 933. 110. 920.
2008-02-09 06:00:00 120. 933. 110. 920.
2008-02-09 12:00:00 120. 933. 105. 925.
2008-02-09 18:00:00 110. 941. 95. 935.
2008-02-10 00:00:00 100. 948. 90. 940.
2008-02-10 06:00:00 95. 952. 85. 947.
2008-02-10 12:00:00 90. 956. 80. 955.
2008-02-10 18:00:00 75. 967. 65. 970.
2008-02-11 00:00:00 60. 978. 50. 980.
2008-02-11 06:00:00 50. 985. 40. 990.
2008-02-11 12:00:00 40. 993. 35. 994.
2008-02-11 18:00:00 35. 996. 30. 996.
2008-02-12 00:00:00 35. 996. 30. 997.
2008-02-12 06:00:00 35. 996. 30. 998.
2008-02-12 12:00:00 35. 996. 30. 999.
2008-02-12 18:00:00 30. 1000. 30. 1000.
2008-02-13 00:00:00 30. 1000. 30. 1000.
2008-02-13 06:00:00 30. 1000. 30. 1001.
2008-02-13 12:00:00 30. 1000. 30. 1001.
2008-02-13 18:00:00 30. 1000. 30. 1001.
2008-02-14 00:00:00 30. 1000. 30. 1001.
2008-02-14 06:00:00 30. 1000. 30. 1002.
jtwc_sh reunion
2008-02-14 12:00:00 30. 1000. 30. 1002.
2008-02-14 18:00:00 35. 996. 30. 1003.
2008-02-15 00:00:00 35. 996. 30. 1003.
2008-02-15 06:00:00 30. 1000. 30. 1004.
2008-02-15 12:00:00 30. 1000. 30. 1005.
2008-02-15 18:00:00 30. 1000. 28. 1006.
2008-02-16 00:00:00 30. 1000. 25. 1007.
2008-02-16 06:00:00 30. 1000. 25. 1007.
2008-02-16 12:00:00 30. 1000. 25. 1007.
2008-02-16 18:00:00 25. 1004. 25. 1007.
2008-02-17 00:00:00 25. 1004. 25. 1007.
2008-02-17 06:00:00 25. 1004. 25. 1007.
2008-02-17 12:00:00 25. 1004. 25. 1007.
2008-02-17 18:00:00 25. 1004. 25. 1007.
2008-02-18 00:00:00 25. 1004. 27. 1006.
2008-02-18 06:00:00 25. 1004. 27. 1006.
2008-02-18 12:00:00 25. 1004. 27. 1006.
2008-02-18 18:00:00 25. 1004. 27. 1006.
2008-02-19 00:00:00 25. 1004. 27. 1006.
2008-02-19 06:00:00 25. 1004. 27. 1006.
2008-02-19 12:00:00 25. 1004. 27. 1005.
2008-02-19 18:00:00 25. 1004. 27. 1005.
2008-02-20 00:00:00 25. 1004. 27. 1005.
2008-02-20 06:00:00 25. 1004. 27. 1005.
jtwc_sh reunion
2008-02-20 12:00:00 25. 1004. 27. 1004.
2008-02-20 18:00:00 25. 1004. 27. 1004.
2008-02-21 00:00:00 25. 1000. 28. 1003.
2008-02-21 06:00:00 30. 1000. 28. 1002.
2008-02-21 12:00:00 30. 1000. 30. 1001.
2008-02-21 18:00:00 30. 1000. 32. 1000.
2008-02-22 00:00:00 30. 1000. 32. 1000.
2008-02-22 06:00:00 30. 1000. 30. 1001.
2008-02-22 12:00:00 30. 1000. 28. 1002.
2008-02-22 18:00:00 35. 996. 28. 1003.
2008-02-23 00:00:00 40. 993. 32. 1000.
2008-02-23 06:00:00 50. 985. 33. 999.
2008-02-23 12:00:00 45. 989. 30. 1001.
2008-02-23 18:00:00 35. 996. 28. 1002.
2008-02-24 00:00:00 30. 1000. 28. 1003.
2008-02-24 06:00:00 25. 1004. 27. 1004.
2008-02-24 12:00:00 25. 1004. 27. 1005.
2008-02-24 18:00:00 25. 1004. 25. 1006.
2008-02-25 00:00:00 25. 1004. 25. 1006.
2008-02-25 06:00:00 25. 1004. 25. 1007.
2008-02-25 12:00:00 25. 1004. 25. 1007.
2008-02-25 18:00:00 25. 1008.
2008-02-26 00:00:00 25. 1008.
2008-02-26 06:00:00 25. 1009.
jtwc_sh reunion
2008-02-26 12:00:00 25. 1009.
2008-02-26 18:00:00 25. 1010.
2008-02-27 00:00:00 25. 1010.
2008-02-27 06:00:00 25. 1011.
2008-02-27 12:00:00 25. 1011.
2008-02-27 18:00:00 25. 1012.
2008-02-28 00:00:00 25. 1012.
2008-02-28 06:00:00 25. 1012.
2008-02-28 12:00:00 20. 1012.
2008-02-28 18:00:00 20. 1012.
2008-02-29 00:00:00 1012.
2008-02-29 06:00:00 1012.

top of page Links to source data

Source Source file Format
jtwc_sh bsh162008.txt ATCF
reunion Best-Tracks-NewWMOFormat.txt:Line=2087:HONDO WMO (old format)